sensor_id;sensor_type;location;lat;lon;timestamp;pressure;altitude;pressure_sealevel;temperature;humidity
76660;BME280;65579;45.534;6.212;2023-06-26T00:01:30;98458.55;;;22.66;43.30
76660;BME280;65579;45.534;6.212;2023-06-26T00:03:56;98463.93;;;21.17;45.30
76660;BME280;65579;45.534;6.212;2023-06-26T00:06:22;98473.91;;;19.96;48.65
76660;BME280;65579;45.534;6.212;2023-06-26T00:08:47;98468.80;;;21.77;45.37
76660;BME280;65579;45.534;6.212;2023-06-26T00:11:12;98467.70;;;22.52;43.72
76660;BME280;65579;45.534;6.212;2023-06-26T00:13:38;98470.83;;;22.85;42.15
76660;BME280;65579;45.534;6.212;2023-06-26T00:16:04;98469.97;;;22.82;42.42
76660;BME280;65579;45.534;6.212;2023-06-26T00:23:20;98471.77;;;23.07;41.65
76660;BME280;65579;45.534;6.212;2023-06-26T00:25:46;98473.96;;;20.81;45.58
76660;BME280;65579;45.534;6.212;2023-06-26T00:28:11;98476.37;;;22.36;42.33
76660;BME280;65579;45.534;6.212;2023-06-26T00:30:36;98474.36;;;23.18;41.33
76660;BME280;65579;45.534;6.212;2023-06-26T00:33:02;98471.98;;;22.43;42.69
76660;BME280;65579;45.534;6.212;2023-06-26T00:35:27;98468.23;;;23.19;41.96
76660;BME280;65579;45.534;6.212;2023-06-26T00:37:53;98465.73;;;22.26;42.74
76660;BME280;65579;45.534;6.212;2023-06-26T00:40:19;98463.77;;;21.27;45.65
76660;BME280;65579;45.534;6.212;2023-06-26T00:42:44;98465.28;;;21.51;45.06
76660;BME280;65579;45.534;6.212;2023-06-26T00:45:10;98470.74;;;20.91;47.27
76660;BME280;65579;45.534;6.212;2023-06-26T00:47:36;98473.17;;;20.08;48.56
76660;BME280;65579;45.534;6.212;2023-06-26T00:50:01;98474.85;;;20.65;47.62
76660;BME280;65579;45.534;6.212;2023-06-26T00:52:26;98476.57;;;19.43;49.25
76660;BME280;65579;45.534;6.212;2023-06-26T00:54:52;98473.54;;;18.90;51.43
76660;BME280;65579;45.534;6.212;2023-06-26T00:57:17;98474.90;;;20.82;47.01
76660;BME280;65579;45.534;6.212;2023-06-26T00:59:43;98474.17;;;21.53;45.52
76660;BME280;65579;45.534;6.212;2023-06-26T01:02:09;98476.11;;;22.43;43.90
76660;BME280;65579;45.534;6.212;2023-06-26T01:04:34;98473.74;;;22.63;42.17
76660;BME280;65579;45.534;6.212;2023-06-26T01:07:02;98476.05;;;23.08;42.13
76660;BME280;65579;45.534;6.212;2023-06-26T01:09:25;98478.88;;;20.75;45.91
76660;BME280;65579;45.534;6.212;2023-06-26T01:11:50;98475.52;;;21.94;44.25
76660;BME280;65579;45.534;6.212;2023-06-26T01:14:16;98474.31;;;22.77;42.46
76660;BME280;65579;45.534;6.212;2023-06-26T01:16:43;98481.78;;;19.72;48.13
76660;BME280;65579;45.534;6.212;2023-06-26T01:19:11;98479.89;;;19.71;48.24
76660;BME280;65579;45.534;6.212;2023-06-26T01:21:32;98477.25;;;20.90;45.20
76660;BME280;65579;45.534;6.212;2023-06-26T01:24:05;98475.06;;;20.95;45.96
76660;BME280;65579;45.534;6.212;2023-06-26T01:26:26;98476.39;;;20.41;47.42
76660;BME280;65579;45.534;6.212;2023-06-26T01:28:51;98475.28;;;20.10;46.93
76660;BME280;65579;45.534;6.212;2023-06-26T01:31:15;98470.96;;;20.92;48.12
76660;BME280;65579;45.534;6.212;2023-06-26T01:33:41;98471.48;;;21.41;45.81
76660;BME280;65579;45.534;6.212;2023-06-26T01:36:07;98471.11;;;21.59;45.86
76660;BME280;65579;45.534;6.212;2023-06-26T01:38:31;98470.10;;;21.07;46.04
76660;BME280;65579;45.534;6.212;2023-06-26T01:40:58;98472.96;;;21.04;45.38
76660;BME280;65579;45.534;6.212;2023-06-26T01:43:27;98477.14;;;20.06;48.11
76660;BME280;65579;45.534;6.212;2023-06-26T01:45:51;98476.66;;;19.51;48.78
76660;BME280;65579;45.534;6.212;2023-06-26T01:48:16;98480.32;;;20.70;47.12
76660;BME280;65579;45.534;6.212;2023-06-26T01:50:40;98480.78;;;20.56;47.63
76660;BME280;65579;45.534;6.212;2023-06-26T01:53:10;98479.05;;;18.68;51.15
76660;BME280;65579;45.534;6.212;2023-06-26T01:55:34;98478.66;;;19.57;49.47
76660;BME280;65579;45.534;6.212;2023-06-26T01:57:56;98481.36;;;20.17;47.92
76660;BME280;65579;45.534;6.212;2023-06-26T02:00:23;98481.34;;;19.57;48.46
76660;BME280;65579;45.534;6.212;2023-06-26T02:02:47;98477.06;;;19.68;49.08
76660;BME280;65579;45.534;6.212;2023-06-26T02:05:13;98484.77;;;17.34;53.46
76660;BME280;65579;45.534;6.212;2023-06-26T02:07:38;98485.21;;;18.04;53.41
76660;BME280;65579;45.534;6.212;2023-06-26T02:10:04;98484.23;;;19.62;50.11
76660;BME280;65579;45.534;6.212;2023-06-26T02:12:29;98486.53;;;21.40;46.69
76660;BME280;65579;45.534;6.212;2023-06-26T02:14:54;98489.81;;;20.51;47.79
76660;BME280;65579;45.534;6.212;2023-06-26T02:17:19;98492.40;;;21.60;45.76
76660;BME280;65579;45.534;6.212;2023-06-26T02:19:45;98487.05;;;21.66;44.94
76660;BME280;65579;45.534;6.212;2023-06-26T02:22:11;98487.25;;;21.07;46.38
76660;BME280;65579;45.534;6.212;2023-06-26T02:24:36;98486.83;;;19.72;48.92
76660;BME280;65579;45.534;6.212;2023-06-26T02:27:01;98486.97;;;19.42;48.91
76660;BME280;65579;45.534;6.212;2023-06-26T02:29:27;98487.78;;;19.75;48.57
76660;BME280;65579;45.534;6.212;2023-06-26T02:31:52;98491.30;;;21.49;45.67
76660;BME280;65579;45.534;6.212;2023-06-26T02:34:18;98494.45;;;21.20;45.68
76660;BME280;65579;45.534;6.212;2023-06-26T02:36:44;98502.75;;;20.69;46.91
76660;BME280;65579;45.534;6.212;2023-06-26T02:39:09;98501.92;;;19.48;50.44
76660;BME280;65579;45.534;6.212;2023-06-26T02:41:34;98501.60;;;19.33;49.21
76660;BME280;65579;45.534;6.212;2023-06-26T02:44:00;98498.95;;;20.72;47.28
76660;BME280;65579;45.534;6.212;2023-06-26T02:46:25;98497.34;;;20.28;47.83
76660;BME280;65579;45.534;6.212;2023-06-26T02:48:51;98496.73;;;18.15;51.94
76660;BME280;65579;45.534;6.212;2023-06-26T02:51:16;98501.13;;;18.83;50.98
76660;BME280;65579;45.534;6.212;2023-06-26T02:53:42;98498.81;;;19.69;49.58
76660;BME280;65579;45.534;6.212;2023-06-26T02:56:07;98503.09;;;20.13;47.14
76660;BME280;65579;45.534;6.212;2023-06-26T02:58:33;98499.09;;;20.98;45.98
76660;BME280;65579;45.534;6.212;2023-06-26T03:00:58;98500.04;;;20.61;46.02
76660;BME280;65579;45.534;6.212;2023-06-26T03:03:23;98499.02;;;20.30;47.90
76660;BME280;65579;45.534;6.212;2023-06-26T03:05:48;98497.40;;;21.43;45.98
76660;BME280;65579;45.534;6.212;2023-06-26T03:08:14;98496.08;;;20.94;46.51
76660;BME280;65579;45.534;6.212;2023-06-26T03:10:39;98498.97;;;20.82;46.43
76660;BME280;65579;45.534;6.212;2023-06-26T03:13:04;98495.00;;;19.49;49.03
76660;BME280;65579;45.534;6.212;2023-06-26T03:15:30;98490.23;;;17.72;52.19
76660;BME280;65579;45.534;6.212;2023-06-26T03:17:56;98494.37;;;19.33;50.20
76660;BME280;65579;45.534;6.212;2023-06-26T03:20:21;98502.99;;;20.51;47.04
76660;BME280;65579;45.534;6.212;2023-06-26T03:22:47;98505.66;;;19.96;48.22
76660;BME280;65579;45.534;6.212;2023-06-26T03:25:13;98512.99;;;17.65;53.50
76660;BME280;65579;45.534;6.212;2023-06-26T03:27:37;98509.04;;;18.29;53.22
76660;BME280;65579;45.534;6.212;2023-06-26T03:30:03;98509.67;;;16.56;56.38
76660;BME280;65579;45.534;6.212;2023-06-26T03:32:28;98512.06;;;18.02;53.26
76660;BME280;65579;45.534;6.212;2023-06-26T03:34:54;98514.73;;;20.57;48.39
76660;BME280;65579;45.534;6.212;2023-06-26T03:37:19;98512.45;;;18.41;52.14
76660;BME280;65579;45.534;6.212;2023-06-26T03:39:45;98510.39;;;18.23;52.57
76660;BME280;65579;45.534;6.212;2023-06-26T03:42:10;98514.59;;;16.36;57.74
76660;BME280;65579;45.534;6.212;2023-06-26T03:44:35;98508.19;;;18.20;52.69
76660;BME280;65579;45.534;6.212;2023-06-26T03:47:01;98510.93;;;18.08;52.14
76660;BME280;65579;45.534;6.212;2023-06-26T03:49:26;98519.91;;;15.74;58.59
76660;BME280;65579;45.534;6.212;2023-06-26T03:51:51;98514.46;;;17.65;55.47
76660;BME280;65579;45.534;6.212;2023-06-26T03:54:17;98513.40;;;17.62;53.47
76660;BME280;65579;45.534;6.212;2023-06-26T03:56:42;98510.83;;;18.83;51.22
76660;BME280;65579;45.534;6.212;2023-06-26T03:59:07;98511.92;;;20.19;48.18
76660;BME280;65579;45.534;6.212;2023-06-26T04:01:33;98515.49;;;19.99;48.69
76660;BME280;65579;45.534;6.212;2023-06-26T04:04:00;98515.04;;;20.02;49.01
76660;BME280;65579;45.534;6.212;2023-06-26T04:06:25;98517.88;;;18.56;50.95
76660;BME280;65579;45.534;6.212;2023-06-26T04:08:50;98523.67;;;20.47;47.43
76660;BME280;65579;45.534;6.212;2023-06-26T04:11:14;98520.48;;;19.48;48.90
76660;BME280;65579;45.534;6.212;2023-06-26T04:13:40;98520.25;;;20.04;48.41
76660;BME280;65579;45.534;6.212;2023-06-26T04:16:05;98523.92;;;20.47;47.37
76660;BME280;65579;45.534;6.212;2023-06-26T04:18:31;98525.55;;;17.72;53.08
76660;BME280;65579;45.534;6.212;2023-06-26T04:21:06;98527.28;;;18.92;49.32
76660;BME280;65579;45.534;6.212;2023-06-26T04:23:21;98532.65;;;16.93;54.35
76660;BME280;65579;45.534;6.212;2023-06-26T04:25:47;98535.60;;;17.65;53.85
76660;BME280;65579;45.534;6.212;2023-06-26T04:28:12;98531.17;;;17.05;55.97
76660;BME280;65579;45.534;6.212;2023-06-26T04:30:38;98534.00;;;18.18;52.88
76660;BME280;65579;45.534;6.212;2023-06-26T04:33:03;98533.63;;;18.28;52.39
76660;BME280;65579;45.534;6.212;2023-06-26T04:35:28;98528.16;;;19.77;48.26
76660;BME280;65579;45.534;6.212;2023-06-26T04:37:54;98527.81;;;18.72;51.11
76660;BME280;65579;45.534;6.212;2023-06-26T04:40:19;98534.38;;;16.52;56.58
76660;BME280;65579;45.534;6.212;2023-06-26T04:42:46;98534.51;;;18.02;53.12
76660;BME280;65579;45.534;6.212;2023-06-26T04:45:10;98543.26;;;16.02;58.41
76660;BME280;65579;45.534;6.212;2023-06-26T04:47:35;98551.99;;;15.95;60.24
76660;BME280;65579;45.534;6.212;2023-06-26T04:50:01;98551.31;;;15.03;62.20
76660;BME280;65579;45.534;6.212;2023-06-26T04:52:26;98548.07;;;16.99;57.17
76660;BME280;65579;45.534;6.212;2023-06-26T04:54:52;98545.46;;;18.99;52.43
76660;BME280;65579;45.534;6.212;2023-06-26T04:57:17;98543.65;;;20.40;49.79
76660;BME280;65579;45.534;6.212;2023-06-26T04:59:42;98544.99;;;20.29;48.93
76660;BME280;65579;45.534;6.212;2023-06-26T05:02:08;98547.09;;;20.47;48.92
76660;BME280;65579;45.534;6.212;2023-06-26T05:04:33;98544.06;;;18.97;50.68
76660;BME280;65579;45.534;6.212;2023-06-26T05:06:58;98542.28;;;19.66;50.82
76660;BME280;65579;45.534;6.212;2023-06-26T05:09:23;98543.43;;;17.95;53.88
76660;BME280;65579;45.534;6.212;2023-06-26T05:11:49;98549.97;;;17.55;55.94
76660;BME280;65579;45.534;6.212;2023-06-26T05:14:15;98550.57;;;20.11;48.88
76660;BME280;65579;45.534;6.212;2023-06-26T05:16:40;98553.87;;;19.42;52.61
76660;BME280;65579;45.534;6.212;2023-06-26T05:19:05;98550.27;;;21.11;48.51
76660;BME280;65579;45.534;6.212;2023-06-26T05:21:31;98548.54;;;22.64;44.92
76660;BME280;65579;45.534;6.212;2023-06-26T05:23:57;98555.81;;;18.63;51.69
76660;BME280;65579;45.534;6.212;2023-06-26T05:26:23;98558.11;;;19.28;50.58
76660;BME280;65579;45.534;6.212;2023-06-26T05:28:48;98556.51;;;21.18;47.83
76660;BME280;65579;45.534;6.212;2023-06-26T05:31:14;98556.24;;;21.74;47.01
76660;BME280;65579;45.534;6.212;2023-06-26T05:33:39;98550.10;;;22.37;44.70
76660;BME280;65579;45.534;6.212;2023-06-26T05:36:05;98548.92;;;21.22;46.56
76660;BME280;65579;45.534;6.212;2023-06-26T05:38:30;98549.29;;;20.08;49.84
76660;BME280;65579;45.534;6.212;2023-06-26T05:40:56;98549.40;;;17.73;56.46
76660;BME280;65579;45.534;6.212;2023-06-26T05:43:22;98550.11;;;18.41;57.13
76660;BME280;65579;45.534;6.212;2023-06-26T05:45:47;98544.67;;;19.59;52.64
76660;BME280;65579;45.534;6.212;2023-06-26T05:48:12;98544.67;;;20.61;49.88
76660;BME280;65579;45.534;6.212;2023-06-26T05:50:38;98540.10;;;20.93;47.85
76660;BME280;65579;45.534;6.212;2023-06-26T05:53:03;98535.37;;;21.91;45.87
76660;BME280;65579;45.534;6.212;2023-06-26T05:55:28;98536.22;;;20.05;47.64
76660;BME280;65579;45.534;6.212;2023-06-26T05:57:54;98532.40;;;19.79;47.89
76660;BME280;65579;45.534;6.212;2023-06-26T06:00:19;98538.03;;;19.98;48.49
76660;BME280;65579;45.534;6.212;2023-06-26T06:02:45;98538.94;;;21.26;46.64
76660;BME280;65579;45.534;6.212;2023-06-26T06:05:10;98544.22;;;20.26;47.05
76660;BME280;65579;45.534;6.212;2023-06-26T06:07:36;98543.20;;;21.39;46.41
76660;BME280;65579;45.534;6.212;2023-06-26T06:10:02;98534.96;;;22.65;44.71
76660;BME280;65579;45.534;6.212;2023-06-26T06:12:26;98537.07;;;21.88;44.43
76660;BME280;65579;45.534;6.212;2023-06-26T06:14:52;98533.29;;;22.45;43.59
76660;BME280;65579;45.534;6.212;2023-06-26T06:17:18;98532.60;;;22.99;42.48
76660;BME280;65579;45.534;6.212;2023-06-26T06:19:44;98526.10;;;21.81;44.15
76660;BME280;65579;45.534;6.212;2023-06-26T06:22:08;98523.65;;;21.23;45.49
76660;BME280;65579;45.534;6.212;2023-06-26T06:24:33;98520.10;;;21.97;44.12
76660;BME280;65579;45.534;6.212;2023-06-26T06:26:58;98520.88;;;22.96;44.90
76660;BME280;65579;45.534;6.212;2023-06-26T06:29:24;98522.30;;;22.33;42.30
76660;BME280;65579;45.534;6.212;2023-06-26T06:31:49;98520.42;;;21.17;44.52
76660;BME280;65579;45.534;6.212;2023-06-26T06:34:15;98519.07;;;21.39;45.93
76660;BME280;65579;45.534;6.212;2023-06-26T06:36:40;98520.42;;;21.63;44.96
76660;BME280;65579;45.534;6.212;2023-06-26T06:39:05;98520.21;;;21.14;45.31
76660;BME280;65579;45.534;6.212;2023-06-26T06:41:31;98518.00;;;21.78;44.42
76660;BME280;65579;45.534;6.212;2023-06-26T06:43:57;98521.23;;;22.32;44.46
76660;BME280;65579;45.534;6.212;2023-06-26T06:46:22;98520.46;;;22.38;43.90
76660;BME280;65579;45.534;6.212;2023-06-26T06:48:47;98515.93;;;22.45;44.55
76660;BME280;65579;45.534;6.212;2023-06-26T06:51:13;98509.81;;;22.20;44.76
76660;BME280;65579;45.534;6.212;2023-06-26T06:53:39;98509.00;;;21.58;46.14
76660;BME280;65579;45.534;6.212;2023-06-26T06:56:04;98505.09;;;22.78;44.29
76660;BME280;65579;45.534;6.212;2023-06-26T06:58:30;98504.12;;;23.10;42.85
76660;BME280;65579;45.534;6.212;2023-06-26T07:00:55;98504.83;;;22.18;44.52
76660;BME280;65579;45.534;6.212;2023-06-26T07:03:20;98501.36;;;23.51;41.02
76660;BME280;65579;45.534;6.212;2023-06-26T07:05:46;98503.47;;;24.11;40.08
76660;BME280;65579;45.534;6.212;2023-06-26T07:08:11;98501.90;;;23.59;40.83
76660;BME280;65579;45.534;6.212;2023-06-26T07:10:37;98500.95;;;23.31;43.19
76660;BME280;65579;45.534;6.212;2023-06-26T07:13:01;98498.98;;;22.19;43.54
76660;BME280;65579;45.534;6.212;2023-06-26T07:15:27;98497.03;;;21.73;44.02
76660;BME280;65579;45.534;6.212;2023-06-26T07:17:53;98493.32;;;22.63;41.31
76660;BME280;65579;45.534;6.212;2023-06-26T07:20:18;98491.59;;;23.81;39.87
76660;BME280;65579;45.534;6.212;2023-06-26T07:22:44;98495.24;;;24.00;39.65
76660;BME280;65579;45.534;6.212;2023-06-26T07:25:10;98494.50;;;23.84;39.59
76660;BME280;65579;45.534;6.212;2023-06-26T07:27:35;98496.82;;;24.14;38.64
76660;BME280;65579;45.534;6.212;2023-06-26T07:30:01;98495.92;;;24.79;38.40
76660;BME280;65579;45.534;6.212;2023-06-26T07:32:26;98493.36;;;25.44;36.74
76660;BME280;65579;45.534;6.212;2023-06-26T07:34:52;98493.04;;;25.67;37.60
76660;BME280;65579;45.534;6.212;2023-06-26T07:37:18;98486.69;;;23.04;42.27
76660;BME280;65579;45.534;6.212;2023-06-26T07:39:43;98486.62;;;24.43;39.64
76660;BME280;65579;45.534;6.212;2023-06-26T07:42:08;98487.21;;;21.17;45.41
76660;BME280;65579;45.534;6.212;2023-06-26T07:44:33;98486.11;;;23.48;41.10
76660;BME280;65579;45.534;6.212;2023-06-26T07:46:58;98488.95;;;24.71;39.15
76660;BME280;65579;45.534;6.212;2023-06-26T07:49:23;98487.92;;;24.87;40.59
76660;BME280;65579;45.534;6.212;2023-06-26T07:51:48;98481.56;;;24.93;39.39
76660;BME280;65579;45.534;6.212;2023-06-26T07:54:14;98478.77;;;25.46;40.08
76660;BME280;65579;45.534;6.212;2023-06-26T07:56:52;98479.46;;;25.52;38.36
76660;BME280;65579;45.534;6.212;2023-06-26T07:59:05;98477.67;;;23.07;42.57
76660;BME280;65579;45.534;6.212;2023-06-26T08:01:30;98478.45;;;25.21;38.86
76660;BME280;65579;45.534;6.212;2023-06-26T08:03:55;98475.60;;;23.86;41.95
76660;BME280;65579;45.534;6.212;2023-06-26T08:06:21;98473.11;;;23.11;43.34
76660;BME280;65579;45.534;6.212;2023-06-26T08:08:46;98473.14;;;23.19;43.25
76660;BME280;65579;45.534;6.212;2023-06-26T08:11:12;98470.14;;;22.40;43.15
76660;BME280;65579;45.534;6.212;2023-06-26T08:13:37;98469.14;;;22.25;43.63
76660;BME280;65579;45.534;6.212;2023-06-26T08:16:03;98471.69;;;22.73;43.44
76660;BME280;65579;45.534;6.212;2023-06-26T08:18:29;98473.24;;;22.71;42.28
76660;BME280;65579;45.534;6.212;2023-06-26T08:20:55;98475.62;;;23.93;40.95
76660;BME280;65579;45.534;6.212;2023-06-26T08:23:20;98471.39;;;23.24;41.32
76660;BME280;65579;45.534;6.212;2023-06-26T08:25:45;98471.34;;;23.98;41.00
76660;BME280;65579;45.534;6.212;2023-06-26T08:28:10;98472.36;;;24.46;40.99
76660;BME280;65579;45.534;6.212;2023-06-26T08:30:35;98465.69;;;23.65;40.89
76660;BME280;65579;45.534;6.212;2023-06-26T08:33:00;98469.35;;;23.90;41.59
76660;BME280;65579;45.534;6.212;2023-06-26T08:35:26;98471.26;;;24.70;40.60
76660;BME280;65579;45.534;6.212;2023-06-26T08:37:51;98471.16;;;24.90;39.69
76660;BME280;65579;45.534;6.212;2023-06-26T08:40:17;98471.07;;;23.95;39.37
76660;BME280;65579;45.534;6.212;2023-06-26T08:42:42;98468.21;;;23.46;40.40
76660;BME280;65579;45.534;6.212;2023-06-26T08:45:08;98468.51;;;23.87;41.59
76660;BME280;65579;45.534;6.212;2023-06-26T08:47:35;98466.82;;;24.42;39.92
76660;BME280;65579;45.534;6.212;2023-06-26T08:50:03;98466.11;;;23.95;40.53
76660;BME280;65579;45.534;6.212;2023-06-26T08:52:24;98465.90;;;24.19;40.07
76660;BME280;65579;45.534;6.212;2023-06-26T08:54:54;98464.42;;;23.86;40.26
76660;BME280;65579;45.534;6.212;2023-06-26T08:57:17;98465.95;;;23.82;39.88
76660;BME280;65579;45.534;6.212;2023-06-26T08:59:40;98468.01;;;24.53;39.84
76660;BME280;65579;45.534;6.212;2023-06-26T09:02:05;98468.02;;;24.89;38.86
76660;BME280;65579;45.534;6.212;2023-06-26T09:04:30;98467.51;;;23.52;40.54
76660;BME280;65579;45.534;6.212;2023-06-26T09:06:56;98467.82;;;23.53;41.20
76660;BME280;65579;45.534;6.212;2023-06-26T09:09:21;98464.07;;;25.14;37.73
76660;BME280;65579;45.534;6.212;2023-06-26T09:11:47;98464.25;;;25.01;38.59
76660;BME280;65579;45.534;6.212;2023-06-26T09:14:13;98463.00;;;25.48;36.39
76660;BME280;65579;45.534;6.212;2023-06-26T09:16:41;98465.17;;;25.24;36.29
76660;BME280;65579;45.534;6.212;2023-06-26T09:19:03;98464.10;;;25.81;37.71
76660;BME280;65579;45.534;6.212;2023-06-26T09:21:29;98463.08;;;25.36;38.43
76660;BME280;65579;45.534;6.212;2023-06-26T09:23:55;98469.26;;;24.90;39.49
76660;BME280;65579;45.534;6.212;2023-06-26T09:26:19;98465.73;;;24.60;40.84
76660;BME280;65579;45.534;6.212;2023-06-26T09:28:44;98466.50;;;25.24;38.41
76660;BME280;65579;45.534;6.212;2023-06-26T09:31:10;98467.00;;;25.29;41.57
76660;BME280;65579;45.534;6.212;2023-06-26T09:33:36;98464.02;;;25.53;37.53
76660;BME280;65579;45.534;6.212;2023-06-26T09:36:01;98459.81;;;25.78;38.63
76660;BME280;65579;45.534;6.212;2023-06-26T09:38:26;98460.26;;;25.79;37.81
76660;BME280;65579;45.534;6.212;2023-06-26T09:40:52;98457.16;;;26.42;38.71
76660;BME280;65579;45.534;6.212;2023-06-26T09:43:18;98453.03;;;25.74;38.36
76660;BME280;65579;45.534;6.212;2023-06-26T09:45:42;98453.89;;;24.66;37.91
76660;BME280;65579;45.534;6.212;2023-06-26T09:48:08;98447.70;;;25.60;40.39
76660;BME280;65579;45.534;6.212;2023-06-26T09:50:34;98444.20;;;25.31;38.95
76660;BME280;65579;45.534;6.212;2023-06-26T09:53:07;98440.73;;;25.39;38.69
76660;BME280;65579;45.534;6.212;2023-06-26T09:55:26;98439.17;;;25.72;38.95
76660;BME280;65579;45.534;6.212;2023-06-26T09:57:50;98437.85;;;26.45;37.87
76660;BME280;65579;45.534;6.212;2023-06-26T10:00:16;98436.15;;;25.22;38.13
76660;BME280;65579;45.534;6.212;2023-06-26T10:02:41;98439.26;;;25.48;38.73
76660;BME280;65579;45.534;6.212;2023-06-26T10:05:06;98442.33;;;25.25;41.12
76660;BME280;65579;45.534;6.212;2023-06-26T10:07:32;98434.10;;;25.12;41.58
76660;BME280;65579;45.534;6.212;2023-06-26T10:09:57;98429.31;;;25.16;40.32
76660;BME280;65579;45.534;6.212;2023-06-26T10:12:27;98427.88;;;25.41;40.54
76660;BME280;65579;45.534;6.212;2023-06-26T10:14:48;98422.56;;;25.65;41.26
76660;BME280;65579;45.534;6.212;2023-06-26T10:17:17;98421.46;;;25.69;38.03
76660;BME280;65579;45.534;6.212;2023-06-26T10:19:41;98419.25;;;26.15;39.42
76660;BME280;65579;45.534;6.212;2023-06-26T10:22:05;98421.77;;;26.58;39.28
76660;BME280;65579;45.534;6.212;2023-06-26T10:24:33;98421.27;;;26.78;39.42
76660;BME280;65579;45.534;6.212;2023-06-26T10:27:00;98420.05;;;26.54;40.05
76660;BME280;65579;45.534;6.212;2023-06-26T10:29:22;98422.00;;;26.13;38.33
76660;BME280;65579;45.534;6.212;2023-06-26T10:31:51;98421.88;;;26.30;39.02
76660;BME280;65579;45.534;6.212;2023-06-26T10:34:12;98420.20;;;26.36;38.13
76660;BME280;65579;45.534;6.212;2023-06-26T10:36:37;98422.55;;;26.40;39.56
76660;BME280;65579;45.534;6.212;2023-06-26T10:39:05;98420.40;;;26.22;37.34
76660;BME280;65579;45.534;6.212;2023-06-26T10:41:36;98416.98;;;26.91;37.06
76660;BME280;65579;45.534;6.212;2023-06-26T10:46:19;98413.49;;;25.85;40.75
76660;BME280;65579;45.534;6.212;2023-06-26T10:48:56;98412.44;;;25.89;38.12
76660;BME280;65579;45.534;6.212;2023-06-26T10:51:14;98409.91;;;26.28;37.95
76660;BME280;65579;45.534;6.212;2023-06-26T10:53:36;98404.92;;;26.22;35.46
76660;BME280;65579;45.534;6.212;2023-06-26T10:56:03;98403.53;;;26.47;37.63
76660;BME280;65579;45.534;6.212;2023-06-26T10:58:29;98400.33;;;26.54;35.17
76660;BME280;65579;45.534;6.212;2023-06-26T11:03:23;98394.50;;;26.91;37.71
76660;BME280;65579;45.534;6.212;2023-06-26T11:05:43;98393.60;;;26.90;36.16
76660;BME280;65579;45.534;6.212;2023-06-26T11:08:10;98390.80;;;26.39;36.16
76660;BME280;65579;45.534;6.212;2023-06-26T11:10:48;98387.08;;;27.44;35.26
76660;BME280;65579;45.534;6.212;2023-06-26T11:13:05;98387.86;;;27.47;33.75
76660;BME280;65579;45.534;6.212;2023-06-26T11:15:26;98388.08;;;27.38;35.73
76660;BME280;65579;45.534;6.212;2023-06-26T11:17:52;98384.66;;;27.17;34.24
76660;BME280;65579;45.534;6.212;2023-06-26T11:20:17;98384.85;;;27.15;33.23
76660;BME280;65579;45.534;6.212;2023-06-26T11:22:43;98384.44;;;26.86;34.67
76660;BME280;65579;45.534;6.212;2023-06-26T11:25:10;98385.34;;;27.38;32.71
76660;BME280;65579;45.534;6.212;2023-06-26T11:27:37;98384.87;;;26.56;36.02
76660;BME280;65579;45.534;6.212;2023-06-26T11:29:58;98382.83;;;27.43;34.33
76660;BME280;65579;45.534;6.212;2023-06-26T11:32:26;98381.06;;;26.94;33.94
76660;BME280;65579;45.534;6.212;2023-06-26T11:34:49;98378.37;;;27.70;34.67
76660;BME280;65579;45.534;6.212;2023-06-26T11:37:16;98378.01;;;26.37;33.97
76660;BME280;65579;45.534;6.212;2023-06-26T11:39:40;98374.02;;;27.31;34.57
76660;BME280;65579;45.534;6.212;2023-06-26T11:42:06;98375.73;;;28.61;32.93
76660;BME280;65579;45.534;6.212;2023-06-26T11:44:32;98372.53;;;28.17;31.40
76660;BME280;65579;45.534;6.212;2023-06-26T11:46:57;98369.91;;;26.92;34.87
76660;BME280;65579;45.534;6.212;2023-06-26T11:49:23;98372.70;;;27.96;37.53
76660;BME280;65579;45.534;6.212;2023-06-26T11:51:47;98367.31;;;27.71;33.28
76660;BME280;65579;45.534;6.212;2023-06-26T11:54:13;98367.07;;;28.23;34.26
76660;BME280;65579;45.534;6.212;2023-06-26T11:56:38;98365.51;;;28.33;32.60
76660;BME280;65579;45.534;6.212;2023-06-26T11:59:05;98366.85;;;28.34;34.61
76660;BME280;65579;45.534;6.212;2023-06-26T12:01:32;98363.25;;;27.86;34.23
76660;BME280;65579;45.534;6.212;2023-06-26T12:03:59;98367.82;;;28.41;36.03
76660;BME280;65579;45.534;6.212;2023-06-26T12:06:21;98365.05;;;28.49;36.28
76660;BME280;65579;45.534;6.212;2023-06-26T12:08:46;98365.43;;;28.17;33.41
76660;BME280;65579;45.534;6.212;2023-06-26T12:11:13;98360.44;;;28.50;36.01
76660;BME280;65579;45.534;6.212;2023-06-26T12:13:37;98354.62;;;28.89;36.79
76660;BME280;65579;45.534;6.212;2023-06-26T12:16:03;98356.57;;;28.71;34.03
76660;BME280;65579;45.534;6.212;2023-06-26T12:18:34;98357.18;;;28.00;33.51
76660;BME280;65579;45.534;6.212;2023-06-26T12:20:54;98360.85;;;27.97;34.27
76660;BME280;65579;45.534;6.212;2023-06-26T12:23:19;98363.56;;;28.45;36.45
76660;BME280;65579;45.534;6.212;2023-06-26T12:25:45;98362.58;;;27.85;36.79
76660;BME280;65579;45.534;6.212;2023-06-26T12:28:16;98362.93;;;28.71;39.03
76660;BME280;65579;45.534;6.212;2023-06-26T12:30:35;98360.29;;;28.52;35.09
76660;BME280;65579;45.534;6.212;2023-06-26T12:33:03;98360.39;;;28.37;36.15
76660;BME280;65579;45.534;6.212;2023-06-26T12:35:26;98355.57;;;29.15;37.92
76660;BME280;65579;45.534;6.212;2023-06-26T12:37:54;98355.71;;;28.58;35.80
76660;BME280;65579;45.534;6.212;2023-06-26T12:40:17;98356.05;;;29.24;37.80
76660;BME280;65579;45.534;6.212;2023-06-26T12:42:43;98352.73;;;29.19;35.71
76660;BME280;65579;45.534;6.212;2023-06-26T12:45:11;98354.93;;;28.43;37.76
76660;BME280;65579;45.534;6.212;2023-06-26T12:47:33;98350.03;;;29.54;36.60
76660;BME280;65579;45.534;6.212;2023-06-26T12:49:58;98351.16;;;29.40;35.57
76660;BME280;65579;45.534;6.212;2023-06-26T12:52:23;98347.31;;;29.71;34.69
76660;BME280;65579;45.534;6.212;2023-06-26T12:54:52;98349.17;;;28.73;38.32
76660;BME280;65579;45.534;6.212;2023-06-26T12:57:14;98348.37;;;28.49;36.32
76660;BME280;65579;45.534;6.212;2023-06-26T12:59:40;98343.80;;;29.10;36.91